sensor_id;sensor_type;location;lat;lon;timestamp;temperature;humidity
52656;SHT85;35474;51.032;6.998;2024-03-22T00:00:02;10.66;82.93
52656;SHT85;35474;51.032;6.998;2024-03-22T00:02:29;10.59;83.08
52656;SHT85;35474;51.032;6.998;2024-03-22T00:04:54;10.48;83.45
52656;SHT85;35474;51.032;6.998;2024-03-22T00:07:20;10.56;83.35
52656;SHT85;35474;51.032;6.998;2024-03-22T00:09:46;10.53;83.53
52656;SHT85;35474;51.032;6.998;2024-03-22T00:12:11;10.50;83.77
52656;SHT85;35474;51.032;6.998;2024-03-22T00:14:37;10.52;83.72
52656;SHT85;35474;51.032;6.998;2024-03-22T00:17:02;10.49;83.83
52656;SHT85;35474;51.032;6.998;2024-03-22T00:19:28;10.55;83.58
52656;SHT85;35474;51.032;6.998;2024-03-22T00:21:54;10.55;83.74
52656;SHT85;35474;51.032;6.998;2024-03-22T00:24:19;10.63;83.62
52656;SHT85;35474;51.032;6.998;2024-03-22T00:26:45;10.52;83.64
52656;SHT85;35474;51.032;6.998;2024-03-22T00:29:10;10.48;83.73
52656;SHT85;35474;51.032;6.998;2024-03-22T00:31:36;10.45;83.86
52656;SHT85;35474;51.032;6.998;2024-03-22T00:34:01;10.50;83.84
52656;SHT85;35474;51.032;6.998;2024-03-22T00:36:27;10.46;83.79
52656;SHT85;35474;51.032;6.998;2024-03-22T00:38:52;10.50;83.88
52656;SHT85;35474;51.032;6.998;2024-03-22T00:41:18;10.44;84.07
52656;SHT85;35474;51.032;6.998;2024-03-22T00:43:43;10.42;84.12
52656;SHT85;35474;51.032;6.998;2024-03-22T00:46:09;10.44;84.08
52656;SHT85;35474;51.032;6.998;2024-03-22T00:48:34;10.49;83.91
52656;SHT85;35474;51.032;6.998;2024-03-22T00:51:01;10.48;83.93
52656;SHT85;35474;51.032;6.998;2024-03-22T00:53:26;10.46;83.93
52656;SHT85;35474;51.032;6.998;2024-03-22T00:55:52;10.42;83.94
52656;SHT85;35474;51.032;6.998;2024-03-22T01:00:34;10.46;83.83
52656;SHT85;35474;51.032;6.998;2024-03-22T01:03:02;10.42;83.91
52656;SHT85;35474;51.032;6.998;2024-03-22T01:05:28;10.38;84.07
52656;SHT85;35474;51.032;6.998;2024-03-22T01:07:53;10.35;84.22
52656;SHT85;35474;51.032;6.998;2024-03-22T01:10:19;10.37;84.26
52656;SHT85;35474;51.032;6.998;2024-03-22T01:12:44;10.46;83.93
52656;SHT85;35474;51.032;6.998;2024-03-22T01:15:10;10.41;83.98
52656;SHT85;35474;51.032;6.998;2024-03-22T01:17:35;10.38;84.14
52656;SHT85;35474;51.032;6.998;2024-03-22T01:20:01;10.37;84.05
52656;SHT85;35474;51.032;6.998;2024-03-22T01:22:27;10.38;84.08
52656;SHT85;35474;51.032;6.998;2024-03-22T01:24:53;10.46;83.87
52656;SHT85;35474;51.032;6.998;2024-03-22T01:27:18;10.44;83.81
52656;SHT85;35474;51.032;6.998;2024-03-22T01:29:44;10.41;83.83
52656;SHT85;35474;51.032;6.998;2024-03-22T01:32:11;10.49;83.84
52656;SHT85;35474;51.032;6.998;2024-03-22T01:34:36;10.46;83.69
52656;SHT85;35474;51.032;6.998;2024-03-22T01:37:02;10.42;83.64
52656;SHT85;35474;51.032;6.998;2024-03-22T01:39:28;10.45;83.82
52656;SHT85;35474;51.032;6.998;2024-03-22T01:41:53;10.50;83.58
52656;SHT85;35474;51.032;6.998;2024-03-22T01:44:19;10.49;83.61
52656;SHT85;35474;51.032;6.998;2024-03-22T01:46:44;10.45;83.75
52656;SHT85;35474;51.032;6.998;2024-03-22T01:49:14;10.41;83.70
52656;SHT85;35474;51.032;6.998;2024-03-22T01:51:41;10.44;83.65
52656;SHT85;35474;51.032;6.998;2024-03-22T01:54:10;10.49;83.50
52656;SHT85;35474;51.032;6.998;2024-03-22T01:56:36;10.42;83.57
52656;SHT85;35474;51.032;6.998;2024-03-22T01:59:02;10.42;83.51
52656;SHT85;35474;51.032;6.998;2024-03-22T02:01:29;10.38;83.49
52656;SHT85;35474;51.032;6.998;2024-03-22T02:04:02;10.39;83.64
52656;SHT85;35474;51.032;6.998;2024-03-22T02:06:27;10.29;83.86
52656;SHT85;35474;51.032;6.998;2024-03-22T02:08:53;10.32;83.75
52656;SHT85;35474;51.032;6.998;2024-03-22T02:11:19;10.32;83.88
52656;SHT85;35474;51.032;6.998;2024-03-22T02:13:45;10.31;83.61
52656;SHT85;35474;51.032;6.998;2024-03-22T02:16:10;10.33;83.58
52656;SHT85;35474;51.032;6.998;2024-03-22T02:18:36;10.32;83.72
52656;SHT85;35474;51.032;6.998;2024-03-22T02:21:02;10.37;83.56
52656;SHT85;35474;51.032;6.998;2024-03-22T02:23:37;10.39;83.58
52656;SHT85;35474;51.032;6.998;2024-03-22T02:26:04;10.39;83.32
52656;SHT85;35474;51.032;6.998;2024-03-22T02:28:30;10.32;83.59
52656;SHT85;35474;51.032;6.998;2024-03-22T02:30:57;10.31;83.76
52656;SHT85;35474;51.032;6.998;2024-03-22T02:33:23;10.39;83.84
52656;SHT85;35474;51.032;6.998;2024-03-22T02:35:49;10.35;83.77
52656;SHT85;35474;51.032;6.998;2024-03-22T02:38:16;10.37;83.76
52656;SHT85;35474;51.032;6.998;2024-03-22T02:40:45;10.32;83.81
52656;SHT85;35474;51.032;6.998;2024-03-22T02:43:12;10.28;83.82
52656;SHT85;35474;51.032;6.998;2024-03-22T02:45:39;10.29;83.84
52656;SHT85;35474;51.032;6.998;2024-03-22T02:48:05;10.35;83.83
52656;SHT85;35474;51.032;6.998;2024-03-22T02:50:34;10.35;83.80
52656;SHT85;35474;51.032;6.998;2024-03-22T02:53:01;10.33;83.78
52656;SHT85;35474;51.032;6.998;2024-03-22T02:55:27;10.31;83.83
52656;SHT85;35474;51.032;6.998;2024-03-22T02:57:52;10.42;83.69
52656;SHT85;35474;51.032;6.998;2024-03-22T03:00:18;10.35;83.73
52656;SHT85;35474;51.032;6.998;2024-03-22T03:02:45;10.37;83.74
52656;SHT85;35474;51.032;6.998;2024-03-22T03:05:11;10.35;83.72
52656;SHT85;35474;51.032;6.998;2024-03-22T03:07:36;10.28;83.86
52656;SHT85;35474;51.032;6.998;2024-03-22T03:10:02;10.28;84.03
52656;SHT85;35474;51.032;6.998;2024-03-22T03:12:28;10.28;84.17
52656;SHT85;35474;51.032;6.998;2024-03-22T03:14:53;10.15;84.73
52656;SHT85;35474;51.032;6.998;2024-03-22T03:17:19;10.10;85.13
52656;SHT85;35474;51.032;6.998;2024-03-22T03:19:44;10.07;85.31
52656;SHT85;35474;51.032;6.998;2024-03-22T03:22:10;10.12;85.35
52656;SHT85;35474;51.032;6.998;2024-03-22T03:24:36;10.07;85.37
52656;SHT85;35474;51.032;6.998;2024-03-22T03:27:01;10.10;85.57
52656;SHT85;35474;51.032;6.998;2024-03-22T03:29:27;10.12;85.78
52656;SHT85;35474;51.032;6.998;2024-03-22T03:31:53;10.15;85.71
52656;SHT85;35474;51.032;6.998;2024-03-22T03:34:18;10.17;85.81
52656;SHT85;35474;51.032;6.998;2024-03-22T03:36:45;10.17;85.81
52656;SHT85;35474;51.032;6.998;2024-03-22T03:39:11;10.17;85.66
52656;SHT85;35474;51.032;6.998;2024-03-22T03:41:37;10.12;85.73
52656;SHT85;35474;51.032;6.998;2024-03-22T03:44:03;10.07;86.16
52656;SHT85;35474;51.032;6.998;2024-03-22T03:46:28;10.05;86.33
52656;SHT85;35474;51.032;6.998;2024-03-22T03:48:54;10.10;86.26
52656;SHT85;35474;51.032;6.998;2024-03-22T03:51:19;10.14;85.98
52656;SHT85;35474;51.032;6.998;2024-03-22T03:53:45;10.17;85.81
52656;SHT85;35474;51.032;6.998;2024-03-22T03:56:11;10.10;86.00
52656;SHT85;35474;51.032;6.998;2024-03-22T03:58:36;10.08;86.01
52656;SHT85;35474;51.032;6.998;2024-03-22T04:01:06;10.08;86.05
52656;SHT85;35474;51.032;6.998;2024-03-22T04:03:32;10.07;86.25
52656;SHT85;35474;51.032;6.998;2024-03-22T04:05:57;10.08;86.09
52656;SHT85;35474;51.032;6.998;2024-03-22T04:08:24;10.08;86.06
52656;SHT85;35474;51.032;6.998;2024-03-22T04:10:54;10.07;86.19
52656;SHT85;35474;51.032;6.998;2024-03-22T04:13:24;10.05;86.25
52656;SHT85;35474;51.032;6.998;2024-03-22T04:15:50;9.97;86.48
52656;SHT85;35474;51.032;6.998;2024-03-22T04:18:16;9.94;86.59
52656;SHT85;35474;51.032;6.998;2024-03-22T04:20:42;9.93;86.76
52656;SHT85;35474;51.032;6.998;2024-03-22T04:23:09;9.91;86.83
52656;SHT85;35474;51.032;6.998;2024-03-22T04:25:35;9.80;87.08
52656;SHT85;35474;51.032;6.998;2024-03-22T04:28:00;9.80;87.33
52656;SHT85;35474;51.032;6.998;2024-03-22T04:30:26;9.76;87.39
52656;SHT85;35474;51.032;6.998;2024-03-22T04:32:51;9.70;87.56
52656;SHT85;35474;51.032;6.998;2024-03-22T04:35:17;9.71;87.75
52656;SHT85;35474;51.032;6.998;2024-03-22T04:37:42;9.73;87.75
52656;SHT85;35474;51.032;6.998;2024-03-22T04:40:08;9.67;87.87
52656;SHT85;35474;51.032;6.998;2024-03-22T04:42:37;9.69;87.99
52656;SHT85;35474;51.032;6.998;2024-03-22T04:45:02;9.66;87.74
52656;SHT85;35474;51.032;6.998;2024-03-22T04:47:28;9.71;87.79
52656;SHT85;35474;51.032;6.998;2024-03-22T04:49:54;9.70;87.83
52656;SHT85;35474;51.032;6.998;2024-03-22T04:52:20;9.73;87.92
52656;SHT85;35474;51.032;6.998;2024-03-22T04:54:46;9.76;87.56
52656;SHT85;35474;51.032;6.998;2024-03-22T04:57:12;9.84;87.31
52656;SHT85;35474;51.032;6.998;2024-03-22T04:59:38;9.94;86.89
52656;SHT85;35474;51.032;6.998;2024-03-22T05:02:04;9.89;86.79
52656;SHT85;35474;51.032;6.998;2024-03-22T05:04:30;9.91;87.00
52656;SHT85;35474;51.032;6.998;2024-03-22T05:06:55;9.89;86.99
52656;SHT85;35474;51.032;6.998;2024-03-22T05:09:21;9.97;86.86
52656;SHT85;35474;51.032;6.998;2024-03-22T05:11:46;9.97;86.58
52656;SHT85;35474;51.032;6.998;2024-03-22T05:14:15;9.95;86.84
52656;SHT85;35474;51.032;6.998;2024-03-22T05:16:41;9.97;86.90
52656;SHT85;35474;51.032;6.998;2024-03-22T05:19:07;9.94;87.02
52656;SHT85;35474;51.032;6.998;2024-03-22T05:21:32;9.94;87.01
52656;SHT85;35474;51.032;6.998;2024-03-22T05:23:58;9.93;87.23
52656;SHT85;35474;51.032;6.998;2024-03-22T05:26:23;9.98;87.24
52656;SHT85;35474;51.032;6.998;2024-03-22T05:28:49;10.02;87.12
52656;SHT85;35474;51.032;6.998;2024-03-22T05:31:14;10.04;87.13
52656;SHT85;35474;51.032;6.998;2024-03-22T05:33:40;10.08;86.91
52656;SHT85;35474;51.032;6.998;2024-03-22T05:36:06;10.11;86.92
52656;SHT85;35474;51.032;6.998;2024-03-22T05:38:32;10.15;86.82
52656;SHT85;35474;51.032;6.998;2024-03-22T05:40:57;10.17;86.82
52656;SHT85;35474;51.032;6.998;2024-03-22T05:43:23;10.18;86.70
52656;SHT85;35474;51.032;6.998;2024-03-22T05:45:49;10.29;86.45
52656;SHT85;35474;51.032;6.998;2024-03-22T05:48:14;10.33;86.42
52656;SHT85;35474;51.032;6.998;2024-03-22T05:50:40;10.28;86.63
52656;SHT85;35474;51.032;6.998;2024-03-22T05:53:06;10.28;86.68
52656;SHT85;35474;51.032;6.998;2024-03-22T05:55:31;10.25;86.63
52656;SHT85;35474;51.032;6.998;2024-03-22T05:57:57;10.37;86.43
52656;SHT85;35474;51.032;6.998;2024-03-22T06:00:23;10.28;86.81
52656;SHT85;35474;51.032;6.998;2024-03-22T06:02:48;10.38;86.64
52656;SHT85;35474;51.032;6.998;2024-03-22T06:05:14;10.50;86.09
52656;SHT85;35474;51.032;6.998;2024-03-22T06:07:40;10.48;86.24
52656;SHT85;35474;51.032;6.998;2024-03-22T06:10:08;10.50;86.25
52656;SHT85;35474;51.032;6.998;2024-03-22T06:12:35;10.63;86.00
52656;SHT85;35474;51.032;6.998;2024-03-22T06:15:01;10.70;85.80
52656;SHT85;35474;51.032;6.998;2024-03-22T06:17:30;10.66;85.58
52656;SHT85;35474;51.032;6.998;2024-03-22T06:19:58;10.70;85.42
52656;SHT85;35474;51.032;6.998;2024-03-22T06:22:23;10.66;85.40
52656;SHT85;35474;51.032;6.998;2024-03-22T06:24:49;10.68;85.54
52656;SHT85;35474;51.032;6.998;2024-03-22T06:27:14;10.69;85.52
52656;SHT85;35474;51.032;6.998;2024-03-22T06:29:40;10.69;85.60
52656;SHT85;35474;51.032;6.998;2024-03-22T06:32:06;10.89;84.97
52656;SHT85;35474;51.032;6.998;2024-03-22T06:34:31;10.81;85.27
52656;SHT85;35474;51.032;6.998;2024-03-22T06:36:57;10.77;85.09
52656;SHT85;35474;51.032;6.998;2024-03-22T06:39:22;10.83;85.23
52656;SHT85;35474;51.032;6.998;2024-03-22T06:41:48;10.90;85.01
52656;SHT85;35474;51.032;6.998;2024-03-22T06:44:14;10.97;84.92
52656;SHT85;35474;51.032;6.998;2024-03-22T06:46:39;11.14;84.67
52656;SHT85;35474;51.032;6.998;2024-03-22T06:49:05;11.13;84.26
52656;SHT85;35474;51.032;6.998;2024-03-22T06:51:31;11.14;84.17
52656;SHT85;35474;51.032;6.998;2024-03-22T06:53:56;11.24;84.03
52656;SHT85;35474;51.032;6.998;2024-03-22T06:56:22;11.34;83.58
52656;SHT85;35474;51.032;6.998;2024-03-22T06:58:48;11.37;83.67
52656;SHT85;35474;51.032;6.998;2024-03-22T07:01:14;11.39;83.29
52656;SHT85;35474;51.032;6.998;2024-03-22T07:03:41;11.49;83.23
52656;SHT85;35474;51.032;6.998;2024-03-22T07:06:10;11.65;82.76
52656;SHT85;35474;51.032;6.998;2024-03-22T07:08:36;11.66;82.57
52656;SHT85;35474;51.032;6.998;2024-03-22T07:11:04;11.69;82.71
52656;SHT85;35474;51.032;6.998;2024-03-22T07:13:31;11.75;82.61
52656;SHT85;35474;51.032;6.998;2024-03-22T07:15:57;11.83;82.25
52656;SHT85;35474;51.032;6.998;2024-03-22T07:18:22;11.95;82.19
52656;SHT85;35474;51.032;6.998;2024-03-22T07:20:48;12.18;81.38
52656;SHT85;35474;51.032;6.998;2024-03-22T07:23:14;12.48;79.72
52656;SHT85;35474;51.032;6.998;2024-03-22T07:25:40;12.50;80.14
52656;SHT85;35474;51.032;6.998;2024-03-22T07:28:08;12.54;79.82
52656;SHT85;35474;51.032;6.998;2024-03-22T07:32:35;12.37;81.16
52656;SHT85;35474;51.032;6.998;2024-03-22T07:35:02;12.57;80.66
52656;SHT85;35474;51.032;6.998;2024-03-22T07:37:28;12.53;80.50
52656;SHT85;35474;51.032;6.998;2024-03-22T07:39:54;12.37;81.03
52656;SHT85;35474;51.032;6.998;2024-03-22T07:42:19;12.36;81.32
52656;SHT85;35474;51.032;6.998;2024-03-22T07:44:46;12.41;81.34
52656;SHT85;35474;51.032;6.998;2024-03-22T07:47:12;12.71;80.66
52656;SHT85;35474;51.032;6.998;2024-03-22T07:49:37;12.72;80.46
52656;SHT85;35474;51.032;6.998;2024-03-22T07:52:03;12.96;79.94
52656;SHT85;35474;51.032;6.998;2024-03-22T07:54:30;13.51;78.54
52656;SHT85;35474;51.032;6.998;2024-03-22T07:56:55;13.57;77.22
52656;SHT85;35474;51.032;6.998;2024-03-22T07:59:21;13.50;77.67
52656;SHT85;35474;51.032;6.998;2024-03-22T08:01:47;13.53;77.48
52656;SHT85;35474;51.032;6.998;2024-03-22T08:04:13;13.44;77.65
52656;SHT85;35474;51.032;6.998;2024-03-22T08:06:38;13.64;77.03
52656;SHT85;35474;51.032;6.998;2024-03-22T08:09:04;13.60;76.68
52656;SHT85;35474;51.032;6.998;2024-03-22T08:11:29;13.74;76.63
52656;SHT85;35474;51.032;6.998;2024-03-22T08:13:56;13.83;76.50
52656;SHT85;35474;51.032;6.998;2024-03-22T08:16:27;14.19;75.18
52656;SHT85;35474;51.032;6.998;2024-03-22T08:18:53;14.30;74.07
52656;SHT85;35474;51.032;6.998;2024-03-22T08:21:19;14.87;72.56
52656;SHT85;35474;51.032;6.998;2024-03-22T08:23:45;15.69;69.89
52656;SHT85;35474;51.032;6.998;2024-03-22T08:26:10;15.17;70.04
52656;SHT85;35474;51.032;6.998;2024-03-22T08:28:36;15.39;70.01
52656;SHT85;35474;51.032;6.998;2024-03-22T08:31:04;15.49;69.00
52656;SHT85;35474;51.032;6.998;2024-03-22T08:33:30;15.21;69.94
52656;SHT85;35474;51.032;6.998;2024-03-22T08:35:55;15.00;69.38
52656;SHT85;35474;51.032;6.998;2024-03-22T08:38:21;15.28;69.25
52656;SHT85;35474;51.032;6.998;2024-03-22T08:40:46;15.14;69.13
52656;SHT85;35474;51.032;6.998;2024-03-22T08:43:12;14.93;68.83
52656;SHT85;35474;51.032;6.998;2024-03-22T08:45:38;14.77;69.06
52656;SHT85;35474;51.032;6.998;2024-03-22T08:48:03;14.91;69.28
52656;SHT85;35474;51.032;6.998;2024-03-22T08:50:29;14.85;68.81
52656;SHT85;35474;51.032;6.998;2024-03-22T08:52:55;14.73;68.86
52656;SHT85;35474;51.032;6.998;2024-03-22T08:55:21;14.77;68.64
52656;SHT85;35474;51.032;6.998;2024-03-22T08:57:46;14.72;68.50
52656;SHT85;35474;51.032;6.998;2024-03-22T09:00:12;14.77;68.41
52656;SHT85;35474;51.032;6.998;2024-03-22T09:02:38;14.80;68.42
52656;SHT85;35474;51.032;6.998;2024-03-22T09:05:04;14.88;67.66
52656;SHT85;35474;51.032;6.998;2024-03-22T09:07:30;14.88;67.96
52656;SHT85;35474;51.032;6.998;2024-03-22T09:09:56;15.30;67.00
52656;SHT85;35474;51.032;6.998;2024-03-22T09:12:21;15.45;66.32
52656;SHT85;35474;51.032;6.998;2024-03-22T09:14:47;15.56;65.90
52656;SHT85;35474;51.032;6.998;2024-03-22T09:17:12;15.67;65.40
52656;SHT85;35474;51.032;6.998;2024-03-22T09:19:38;15.69;64.96
52656;SHT85;35474;51.032;6.998;2024-03-22T09:22:03;15.58;64.67
52656;SHT85;35474;51.032;6.998;2024-03-22T09:24:29;15.45;65.22
52656;SHT85;35474;51.032;6.998;2024-03-22T09:26:55;15.34;65.90
52656;SHT85;35474;51.032;6.998;2024-03-22T09:29:20;15.45;66.22
52656;SHT85;35474;51.032;6.998;2024-03-22T09:31:46;15.56;65.57
52656;SHT85;35474;51.032;6.998;2024-03-22T09:34:12;15.74;64.77
52656;SHT85;35474;51.032;6.998;2024-03-22T09:36:40;15.72;65.01
52656;SHT85;35474;51.032;6.998;2024-03-22T09:39:06;16.09;63.88
52656;SHT85;35474;51.032;6.998;2024-03-22T09:41:32;16.00;63.81
52656;SHT85;35474;51.032;6.998;2024-03-22T09:43:58;15.76;64.61
52656;SHT85;35474;51.032;6.998;2024-03-22T09:46:27;15.61;64.56
52656;SHT85;35474;51.032;6.998;2024-03-22T09:48:53;15.61;65.31
52656;SHT85;35474;51.032;6.998;2024-03-22T09:51:19;15.56;64.73
52656;SHT85;35474;51.032;6.998;2024-03-22T09:53:49;15.58;64.85
52656;SHT85;35474;51.032;6.998;2024-03-22T09:56:17;15.59;64.57
52656;SHT85;35474;51.032;6.998;2024-03-22T09:58:46;16.30;62.99
52656;SHT85;35474;51.032;6.998;2024-03-22T10:01:11;16.09;63.02
52656;SHT85;35474;51.032;6.998;2024-03-22T10:03:37;15.94;63.51
52656;SHT85;35474;51.032;6.998;2024-03-22T10:06:03;16.11;63.46
52656;SHT85;35474;51.032;6.998;2024-03-22T10:08:29;16.10;63.48
52656;SHT85;35474;51.032;6.998;2024-03-22T10:10:55;16.20;62.71
52656;SHT85;35474;51.032;6.998;2024-03-22T10:13:21;15.99;63.74
52656;SHT85;35474;51.032;6.998;2024-03-22T10:15:48;15.94;64.14
52656;SHT85;35474;51.032;6.998;2024-03-22T10:18:14;16.04;64.02
52656;SHT85;35474;51.032;6.998;2024-03-22T10:20:40;15.85;63.81
52656;SHT85;35474;51.032;6.998;2024-03-22T10:23:07;15.80;63.62
52656;SHT85;35474;51.032;6.998;2024-03-22T10:25:34;15.72;64.13
52656;SHT85;35474;51.032;6.998;2024-03-22T10:28:00;15.65;64.50
52656;SHT85;35474;51.032;6.998;2024-03-22T10:30:26;15.85;64.46
52656;SHT85;35474;51.032;6.998;2024-03-22T10:32:52;15.79;64.68
52656;SHT85;35474;51.032;6.998;2024-03-22T10:35:19;15.80;64.36
52656;SHT85;35474;51.032;6.998;2024-03-22T10:37:44;15.74;64.93
52656;SHT85;35474;51.032;6.998;2024-03-22T10:40:10;15.66;65.23
52656;SHT85;35474;51.032;6.998;2024-03-22T10:42:37;15.77;65.07
52656;SHT85;35474;51.032;6.998;2024-03-22T10:45:06;15.55;65.17
52656;SHT85;35474;51.032;6.998;2024-03-22T10:47:34;15.83;64.94
52656;SHT85;35474;51.032;6.998;2024-03-22T10:50:05;15.62;65.43
52656;SHT85;35474;51.032;6.998;2024-03-22T10:52:37;15.62;65.85
52656;SHT85;35474;51.032;6.998;2024-03-22T10:55:06;15.48;65.78
52656;SHT85;35474;51.032;6.998;2024-03-22T10:57:34;15.67;65.78
52656;SHT85;35474;51.032;6.998;2024-03-22T11:00:11;15.72;65.52
52656;SHT85;35474;51.032;6.998;2024-03-22T11:02:37;15.58;65.76
52656;SHT85;35474;51.032;6.998;2024-03-22T11:05:04;15.74;65.77
52656;SHT85;35474;51.032;6.998;2024-03-22T11:07:30;15.83;65.33
52656;SHT85;35474;51.032;6.998;2024-03-22T11:09:56;15.85;65.49
52656;SHT85;35474;51.032;6.998;2024-03-22T11:12:26;15.69;65.79
52656;SHT85;35474;51.032;6.998;2024-03-22T11:14:55;15.36;66.64
52656;SHT85;35474;51.032;6.998;2024-03-22T11:17:22;15.36;66.60
52656;SHT85;35474;51.032;6.998;2024-03-22T11:19:53;15.41;67.17
52656;SHT85;35474;51.032;6.998;2024-03-22T11:22:18;15.27;67.07
52656;SHT85;35474;51.032;6.998;2024-03-22T11:24:44;15.34;67.08
52656;SHT85;35474;51.032;6.998;2024-03-22T11:27:10;15.31;66.93
52656;SHT85;35474;51.032;6.998;2024-03-22T11:29:37;15.34;66.90
52656;SHT85;35474;51.032;6.998;2024-03-22T11:32:10;15.24;66.42
52656;SHT85;35474;51.032;6.998;2024-03-22T11:34:38;15.14;67.11
52656;SHT85;35474;51.032;6.998;2024-03-22T11:37:07;15.05;67.11
52656;SHT85;35474;51.032;6.998;2024-03-22T11:39:39;15.42;66.50
52656;SHT85;35474;51.032;6.998;2024-03-22T11:42:05;15.66;65.94
52656;SHT85;35474;51.032;6.998;2024-03-22T11:44:33;15.87;65.69
52656;SHT85;35474;51.032;6.998;2024-03-22T11:47:02;15.63;65.40
52656;SHT85;35474;51.032;6.998;2024-03-22T11:49:28;15.90;65.23
52656;SHT85;35474;51.032;6.998;2024-03-22T11:51:55;16.17;64.33
52656;SHT85;35474;51.032;6.998;2024-03-22T11:54:22;16.37;63.67
52656;SHT85;35474;51.032;6.998;2024-03-22T11:56:47;16.17;62.83
52656;SHT85;35474;51.032;6.998;2024-03-22T11:59:13;15.65;65.18
52656;SHT85;35474;51.032;6.998;2024-03-22T12:01:38;15.90;64.83
52656;SHT85;35474;51.032;6.998;2024-03-22T12:04:05;15.69;62.85
52656;SHT85;35474;51.032;6.998;2024-03-22T12:06:36;15.69;62.17
52656;SHT85;35474;51.032;6.998;2024-03-22T12:09:02;15.36;62.35
52656;SHT85;35474;51.032;6.998;2024-03-22T12:11:28;15.27;63.59
52656;SHT85;35474;51.032;6.998;2024-03-22T12:13:54;15.48;63.45
52656;SHT85;35474;51.032;6.998;2024-03-22T12:16:20;15.56;63.36
52656;SHT85;35474;51.032;6.998;2024-03-22T12:18:45;15.58;62.69
52656;SHT85;35474;51.032;6.998;2024-03-22T12:21:11;15.58;63.10
52656;SHT85;35474;51.032;6.998;2024-03-22T12:23:36;15.24;63.35
52656;SHT85;35474;51.032;6.998;2024-03-22T12:26:02;15.32;63.97
52656;SHT85;35474;51.032;6.998;2024-03-22T12:28:28;15.32;63.86
52656;SHT85;35474;51.032;6.998;2024-03-22T12:30:53;15.55;63.81
52656;SHT85;35474;51.032;6.998;2024-03-22T12:33:19;15.25;64.90
52656;SHT85;35474;51.032;6.998;2024-03-22T12:35:45;15.46;64.65
52656;SHT85;35474;51.032;6.998;2024-03-22T12:38:12;15.41;65.21
52656;SHT85;35474;51.032;6.998;2024-03-22T12:40:39;15.41;66.00
52656;SHT85;35474;51.032;6.998;2024-03-22T12:43:09;15.35;66.39
52656;SHT85;35474;51.032;6.998;2024-03-22T12:45:34;15.25;65.85
52656;SHT85;35474;51.032;6.998;2024-03-22T12:48:00;15.38;65.83
52656;SHT85;35474;51.032;6.998;2024-03-22T12:50:26;15.34;64.63
52656;SHT85;35474;51.032;6.998;2024-03-22T12:52:52;15.31;64.81
52656;SHT85;35474;51.032;6.998;2024-03-22T12:55:18;15.20;64.45
52656;SHT85;35474;51.032;6.998;2024-03-22T12:57:44;15.21;65.10
52656;SHT85;35474;51.032;6.998;2024-03-22T13:00:10;15.17;63.24
52656;SHT85;35474;51.032;6.998;2024-03-22T13:02:43;15.35;62.19
52656;SHT85;35474;51.032;6.998;2024-03-22T13:05:12;15.49;61.65
52656;SHT85;35474;51.032;6.998;2024-03-22T13:07:40;15.41;60.06
52656;SHT85;35474;51.032;6.998;2024-03-22T13:10:07;15.55;61.12
52656;SHT85;35474;51.032;6.998;2024-03-22T13:12:34;15.30;61.89
52656;SHT85;35474;51.032;6.998;2024-03-22T13:15:00;15.41;61.67
52656;SHT85;35474;51.032;6.998;2024-03-22T13:17:29;15.39;60.68
52656;SHT85;35474;51.032;6.998;2024-03-22T13:19:55;15.45;60.86
52656;SHT85;35474;51.032;6.998;2024-03-22T13:22:21;15.70;60.26
52656;SHT85;35474;51.032;6.998;2024-03-22T13:24:46;16.30;58.67
52656;SHT85;35474;51.032;6.998;2024-03-22T13:27:13;16.27;58.04
52656;SHT85;35474;51.032;6.998;2024-03-22T13:29:39;15.82;59.28
52656;SHT85;35474;51.032;6.998;2024-03-22T13:32:05;15.67;59.62
52656;SHT85;35474;51.032;6.998;2024-03-22T13:34:33;15.85;59.73
52656;SHT85;35474;51.032;6.998;2024-03-22T13:37:00;16.11;59.18
52656;SHT85;35474;51.032;6.998;2024-03-22T13:39:25;16.22;59.33
52656;SHT85;35474;51.032;6.998;2024-03-22T13:41:51;16.90;57.24
52656;SHT85;35474;51.032;6.998;2024-03-22T13:44:16;16.49;57.44
52656;SHT85;35474;51.032;6.998;2024-03-22T13:46:42;16.92;56.87
52656;SHT85;35474;51.032;6.998;2024-03-22T13:49:15;17.06;57.10
52656;SHT85;35474;51.032;6.998;2024-03-22T13:51:42;16.64;57.89
52656;SHT85;35474;51.032;6.998;2024-03-22T13:54:07;16.09;59.70
52656;SHT85;35474;51.032;6.998;2024-03-22T13:56:33;15.96;60.40
52656;SHT85;35474;51.032;6.998;2024-03-22T13:58:59;15.85;61.48
52656;SHT85;35474;51.032;6.998;2024-03-22T14:01:25;15.67;62.44
52656;SHT85;35474;51.032;6.998;2024-03-22T14:03:50;15.66;63.15
52656;SHT85;35474;51.032;6.998;2024-03-22T14:06:16;15.65;63.23
52656;SHT85;35474;51.032;6.998;2024-03-22T14:08:41;15.43;63.81
52656;SHT85;35474;51.032;6.998;2024-03-22T14:11:07;15.46;63.65
52656;SHT85;35474;51.032;6.998;2024-03-22T14:13:33;15.66;63.31
52656;SHT85;35474;51.032;6.998;2024-03-22T14:15:59;15.39;63.80
52656;SHT85;35474;51.032;6.998;2024-03-22T14:18:25;15.45;64.08
52656;SHT85;35474;51.032;6.998;2024-03-22T14:20:50;15.41;64.01
52656;SHT85;35474;51.032;6.998;2024-03-22T14:23:16;15.39;64.19
52656;SHT85;35474;51.032;6.998;2024-03-22T14:25:41;15.27;64.50
52656;SHT85;35474;51.032;6.998;2024-03-22T14:28:07;15.39;65.00
52656;SHT85;35474;51.032;6.998;2024-03-22T14:30:32;15.35;65.69
52656;SHT85;35474;51.032;6.998;2024-03-22T14:32:58;15.04;66.76
52656;SHT85;35474;51.032;6.998;2024-03-22T14:35:23;15.05;67.22
52656;SHT85;35474;51.032;6.998;2024-03-22T14:37:49;15.17;67.14
52656;SHT85;35474;51.032;6.998;2024-03-22T14:40:15;15.10;67.44
52656;SHT85;35474;51.032;6.998;2024-03-22T14:42:42;14.95;68.07
52656;SHT85;35474;51.032;6.998;2024-03-22T14:45:09;15.05;67.82
52656;SHT85;35474;51.032;6.998;2024-03-22T14:47:37;15.07;68.36
52656;SHT85;35474;51.032;6.998;2024-03-22T14:50:02;15.11;68.66
52656;SHT85;35474;51.032;6.998;2024-03-22T14:52:29;15.21;68.21
52656;SHT85;35474;51.032;6.998;2024-03-22T14:54:55;15.12;68.16
52656;SHT85;35474;51.032;6.998;2024-03-22T14:57:20;15.34;68.30
52656;SHT85;35474;51.032;6.998;2024-03-22T14:59:46;15.56;67.88
52656;SHT85;35474;51.032;6.998;2024-03-22T15:02:14;15.41;67.76
52656;SHT85;35474;51.032;6.998;2024-03-22T15:04:40;15.14;68.24
52656;SHT85;35474;51.032;6.998;2024-03-22T15:07:05;15.04;69.22
52656;SHT85;35474;51.032;6.998;2024-03-22T15:09:31;14.84;69.50
52656;SHT85;35474;51.032;6.998;2024-03-22T15:11:57;14.83;69.95
52656;SHT85;35474;51.032;6.998;2024-03-22T15:14:25;14.80;69.97
52656;SHT85;35474;51.032;6.998;2024-03-22T15:16:54;14.95;69.62
52656;SHT85;35474;51.032;6.998;2024-03-22T15:19:20;14.74;70.16
52656;SHT85;35474;51.032;6.998;2024-03-22T15:21:48;14.52;71.00
52656;SHT85;35474;51.032;6.998;2024-03-22T15:24:14;14.43;71.17
52656;SHT85;35474;51.032;6.998;2024-03-22T15:26:40;14.36;71.59
52656;SHT85;35474;51.032;6.998;2024-03-22T15:29:05;14.56;71.23